sensor_id;sensor_type;location;lat;lon;timestamp;P1;durP1;ratioP1;P2;durP2;ratioP2
25854;SDS011;13680;49.936;11.344;2022-11-20T00:00:50;31.67;;;14.10;;
25854;SDS011;13680;49.936;11.344;2022-11-20T00:03:15;27.30;;;13.48;;
25854;SDS011;13680;49.936;11.344;2022-11-20T00:05:40;31.88;;;14.10;;
25854;SDS011;13680;49.936;11.344;2022-11-20T00:08:06;25.98;;;13.13;;
25854;SDS011;13680;49.936;11.344;2022-11-20T00:10:31;31.73;;;14.57;;
25854;SDS011;13680;49.936;11.344;2022-11-20T00:13:00;28.90;;;14.35;;
25854;SDS011;13680;49.936;11.344;2022-11-20T00:15:25;28.35;;;13.52;;
25854;SDS011;13680;49.936;11.344;2022-11-20T00:17:50;37.30;;;15.77;;
25854;SDS011;13680;49.936;11.344;2022-11-20T00:20:16;31.60;;;15.23;;
25854;SDS011;13680;49.936;11.344;2022-11-20T00:22:41;34.15;;;15.57;;
25854;SDS011;13680;49.936;11.344;2022-11-20T00:25:06;32.10;;;14.38;;
25854;SDS011;13680;49.936;11.344;2022-11-20T00:27:32;32.08;;;13.95;;
25854;SDS011;13680;49.936;11.344;2022-11-20T00:29:57;29.70;;;14.05;;
25854;SDS011;13680;49.936;11.344;2022-11-20T00:32:23;27.30;;;13.05;;
25854;SDS011;13680;49.936;11.344;2022-11-20T00:34:48;27.95;;;12.77;;
25854;SDS011;13680;49.936;11.344;2022-11-20T00:37:13;30.23;;;13.82;;
25854;SDS011;13680;49.936;11.344;2022-11-20T00:39:39;31.02;;;14.38;;
25854;SDS011;13680;49.936;11.344;2022-11-20T00:42:04;30.05;;;13.20;;
25854;SDS011;13680;49.936;11.344;2022-11-20T00:44:29;29.27;;;12.77;;
25854;SDS011;13680;49.936;11.344;2022-11-20T00:46:55;28.25;;;13.32;;
25854;SDS011;13680;49.936;11.344;2022-11-20T00:49:20;30.55;;;14.18;;
25854;SDS011;13680;49.936;11.344;2022-11-20T00:51:45;26.63;;;12.60;;
25854;SDS011;13680;49.936;11.344;2022-11-20T00:54:11;38.38;;;15.70;;
25854;SDS011;13680;49.936;11.344;2022-11-20T00:56:36;31.13;;;14.48;;
25854;SDS011;13680;49.936;11.344;2022-11-20T00:59:01;32.05;;;13.95;;
25854;SDS011;13680;49.936;11.344;2022-11-20T01:01:27;33.15;;;15.70;;
25854;SDS011;13680;49.936;11.344;2022-11-20T01:03:56;30.70;;;13.95;;
25854;SDS011;13680;49.936;11.344;2022-11-20T01:06:32;30.38;;;14.55;;
25854;SDS011;13680;49.936;11.344;2022-11-20T01:09:02;31.98;;;13.57;;
25854;SDS011;13680;49.936;11.344;2022-11-20T01:11:34;31.25;;;14.20;;
25854;SDS011;13680;49.936;11.344;2022-11-20T01:14:02;28.88;;;13.32;;
25854;SDS011;13680;49.936;11.344;2022-11-20T01:16:31;30.60;;;14.23;;
25854;SDS011;13680;49.936;11.344;2022-11-20T01:19:02;32.20;;;14.63;;
25854;SDS011;13680;49.936;11.344;2022-11-20T01:21:30;27.98;;;13.63;;
25854;SDS011;13680;49.936;11.344;2022-11-20T01:23:58;29.60;;;13.98;;
25854;SDS011;13680;49.936;11.344;2022-11-20T01:26:25;28.83;;;13.80;;
25854;SDS011;13680;49.936;11.344;2022-11-20T01:28:53;34.05;;;15.63;;
25854;SDS011;13680;49.936;11.344;2022-11-20T01:31:21;31.13;;;14.52;;
25854;SDS011;13680;49.936;11.344;2022-11-20T01:33:49;34.00;;;15.15;;
25854;SDS011;13680;49.936;11.344;2022-11-20T01:36:16;35.22;;;14.98;;
25854;SDS011;13680;49.936;11.344;2022-11-20T01:38:42;32.80;;;15.10;;
25854;SDS011;13680;49.936;11.344;2022-11-20T01:41:09;33.70;;;15.05;;
25854;SDS011;13680;49.936;11.344;2022-11-20T01:43:35;33.13;;;15.70;;
25854;SDS011;13680;49.936;11.344;2022-11-20T01:51:31;35.30;;;14.70;;
25854;SDS011;13680;49.936;11.344;2022-11-20T01:54:05;33.90;;;15.18;;
25854;SDS011;13680;49.936;11.344;2022-11-20T01:56:36;31.45;;;14.00;;
25854;SDS011;13680;49.936;11.344;2022-11-20T01:59:04;33.03;;;15.52;;
25854;SDS011;13680;49.936;11.344;2022-11-20T02:01:32;33.13;;;15.20;;
25854;SDS011;13680;49.936;11.344;2022-11-20T02:03:58;34.10;;;15.65;;
25854;SDS011;13680;49.936;11.344;2022-11-20T02:06:32;36.22;;;15.98;;
25854;SDS011;13680;49.936;11.344;2022-11-20T02:09:04;34.95;;;15.80;;
25854;SDS011;13680;49.936;11.344;2022-11-20T02:11:30;36.22;;;15.65;;
25854;SDS011;13680;49.936;11.344;2022-11-20T02:13:56;35.78;;;15.68;;
25854;SDS011;13680;49.936;11.344;2022-11-20T02:16:25;35.58;;;16.17;;
25854;SDS011;13680;49.936;11.344;2022-11-20T02:18:54;30.95;;;14.48;;
25854;SDS011;13680;49.936;11.344;2022-11-20T02:26:40;34.70;;;15.73;;
25854;SDS011;13680;49.936;11.344;2022-11-20T02:29:09;35.33;;;16.10;;
25854;SDS011;13680;49.936;11.344;2022-11-20T02:31:38;34.53;;;15.18;;
25854;SDS011;13680;49.936;11.344;2022-11-20T02:34:07;36.25;;;15.07;;
25854;SDS011;13680;49.936;11.344;2022-11-20T02:36:33;32.33;;;15.70;;
25854;SDS011;13680;49.936;11.344;2022-11-20T02:39:01;33.00;;;15.38;;
25854;SDS011;13680;49.936;11.344;2022-11-20T02:41:34;32.58;;;16.48;;
25854;SDS011;13680;49.936;11.344;2022-11-20T02:44:02;38.20;;;16.35;;
25854;SDS011;13680;49.936;11.344;2022-11-20T02:46:28;36.03;;;16.40;;
25854;SDS011;13680;49.936;11.344;2022-11-20T02:48:54;39.55;;;17.42;;
25854;SDS011;13680;49.936;11.344;2022-11-20T02:51:19;35.30;;;17.05;;
25854;SDS011;13680;49.936;11.344;2022-11-20T02:53:45;37.03;;;17.15;;
25854;SDS011;13680;49.936;11.344;2022-11-20T02:56:10;35.95;;;17.13;;
25854;SDS011;13680;49.936;11.344;2022-11-20T02:58:35;39.55;;;17.13;;
25854;SDS011;13680;49.936;11.344;2022-11-20T03:01:01;37.88;;;17.83;;
25854;SDS011;13680;49.936;11.344;2022-11-20T03:03:26;36.80;;;17.13;;
25854;SDS011;13680;49.936;11.344;2022-11-20T03:05:51;35.03;;;17.05;;
25854;SDS011;13680;49.936;11.344;2022-11-20T03:08:17;35.83;;;17.20;;
25854;SDS011;13680;49.936;11.344;2022-11-20T03:10:42;37.83;;;17.67;;
25854;SDS011;13680;49.936;11.344;2022-11-20T03:13:07;35.75;;;16.60;;
25854;SDS011;13680;49.936;11.344;2022-11-20T03:15:33;39.03;;;17.08;;
25854;SDS011;13680;49.936;11.344;2022-11-20T03:17:58;36.53;;;16.70;;
25854;SDS011;13680;49.936;11.344;2022-11-20T03:20:23;39.92;;;18.60;;
25854;SDS011;13680;49.936;11.344;2022-11-20T03:22:49;39.50;;;19.08;;
25854;SDS011;13680;49.936;11.344;2022-11-20T03:25:14;39.97;;;17.58;;
25854;SDS011;13680;49.936;11.344;2022-11-20T03:27:40;36.00;;;17.98;;
25854;SDS011;13680;49.936;11.344;2022-11-20T03:30:05;35.17;;;16.40;;
25854;SDS011;13680;49.936;11.344;2022-11-20T03:32:34;33.60;;;16.00;;
25854;SDS011;13680;49.936;11.344;2022-11-20T03:34:59;38.20;;;18.02;;
25854;SDS011;13680;49.936;11.344;2022-11-20T03:37:24;38.03;;;17.35;;
25854;SDS011;13680;49.936;11.344;2022-11-20T03:39:50;35.08;;;17.20;;
25854;SDS011;13680;49.936;11.344;2022-11-20T03:42:15;38.17;;;17.50;;
25854;SDS011;13680;49.936;11.344;2022-11-20T03:44:59;35.25;;;16.65;;
25854;SDS011;13680;49.936;11.344;2022-11-20T03:47:24;33.55;;;17.20;;
25854;SDS011;13680;49.936;11.344;2022-11-20T03:49:50;35.53;;;16.92;;
25854;SDS011;13680;49.936;11.344;2022-11-20T03:52:15;34.70;;;16.67;;
25854;SDS011;13680;49.936;11.344;2022-11-20T03:54:40;36.92;;;17.77;;
25854;SDS011;13680;49.936;11.344;2022-11-20T03:57:05;35.42;;;16.42;;
25854;SDS011;13680;49.936;11.344;2022-11-20T03:59:31;36.15;;;16.30;;
25854;SDS011;13680;49.936;11.344;2022-11-20T04:01:56;36.10;;;17.83;;
25854;SDS011;13680;49.936;11.344;2022-11-20T04:04:21;34.95;;;16.40;;
25854;SDS011;13680;49.936;11.344;2022-11-20T04:06:47;40.03;;;17.63;;
25854;SDS011;13680;49.936;11.344;2022-11-20T04:09:12;34.53;;;16.92;;
25854;SDS011;13680;49.936;11.344;2022-11-20T04:11:39;39.45;;;18.73;;
25854;SDS011;13680;49.936;11.344;2022-11-20T04:14:05;35.28;;;16.90;;
25854;SDS011;13680;49.936;11.344;2022-11-20T04:16:36;40.35;;;17.88;;
25854;SDS011;13680;49.936;11.344;2022-11-20T04:19:02;38.63;;;18.33;;
25854;SDS011;13680;49.936;11.344;2022-11-20T04:21:29;37.55;;;17.63;;
25854;SDS011;13680;49.936;11.344;2022-11-20T04:23:55;38.30;;;18.08;;
25854;SDS011;13680;49.936;11.344;2022-11-20T04:26:22;37.15;;;16.77;;
25854;SDS011;13680;49.936;11.344;2022-11-20T04:28:49;38.08;;;18.23;;
25854;SDS011;13680;49.936;11.344;2022-11-20T04:31:16;34.78;;;17.20;;
25854;SDS011;13680;49.936;11.344;2022-11-20T04:33:43;36.88;;;17.90;;
25854;SDS011;13680;49.936;11.344;2022-11-20T04:36:16;39.92;;;17.05;;
25854;SDS011;13680;49.936;11.344;2022-11-20T04:38:53;40.33;;;19.85;;
25854;SDS011;13680;49.936;11.344;2022-11-20T04:41:31;36.75;;;16.98;;
25854;SDS011;13680;49.936;11.344;2022-11-20T04:43:59;41.03;;;19.13;;
25854;SDS011;13680;49.936;11.344;2022-11-20T04:46:28;36.38;;;17.80;;
25854;SDS011;13680;49.936;11.344;2022-11-20T04:48:55;38.30;;;17.27;;
25854;SDS011;13680;49.936;11.344;2022-11-20T04:51:21;38.50;;;17.55;;
25854;SDS011;13680;49.936;11.344;2022-11-20T04:53:46;35.25;;;16.27;;
25854;SDS011;13680;49.936;11.344;2022-11-20T04:56:12;38.90;;;18.10;;
25854;SDS011;13680;49.936;11.344;2022-11-20T04:58:39;35.88;;;17.55;;
25854;SDS011;13680;49.936;11.344;2022-11-20T05:01:05;36.75;;;18.23;;
25854;SDS011;13680;49.936;11.344;2022-11-20T05:03:32;39.83;;;18.15;;
25854;SDS011;13680;49.936;11.344;2022-11-20T05:06:01;40.85;;;19.23;;
25854;SDS011;13680;49.936;11.344;2022-11-20T05:08:29;40.30;;;18.33;;
25854;SDS011;13680;49.936;11.344;2022-11-20T05:10:59;42.78;;;19.23;;
25854;SDS011;13680;49.936;11.344;2022-11-20T05:13:26;40.03;;;18.52;;
25854;SDS011;13680;49.936;11.344;2022-11-20T05:15:51;39.10;;;19.23;;
25854;SDS011;13680;49.936;11.344;2022-11-20T05:18:17;40.30;;;18.75;;
25854;SDS011;13680;49.936;11.344;2022-11-20T05:20:42;34.28;;;17.58;;
25854;SDS011;13680;49.936;11.344;2022-11-20T05:23:07;39.05;;;17.88;;
25854;SDS011;13680;49.936;11.344;2022-11-20T05:25:32;43.63;;;19.08;;
25854;SDS011;13680;49.936;11.344;2022-11-20T05:27:58;38.95;;;18.27;;
25854;SDS011;13680;49.936;11.344;2022-11-20T05:30:23;38.03;;;18.25;;
25854;SDS011;13680;49.936;11.344;2022-11-20T05:32:48;39.70;;;19.15;;
25854;SDS011;13680;49.936;11.344;2022-11-20T05:35:14;42.33;;;18.70;;
25854;SDS011;13680;49.936;11.344;2022-11-20T05:37:39;36.80;;;16.40;;
25854;SDS011;13680;49.936;11.344;2022-11-20T05:40:05;37.40;;;19.35;;
25854;SDS011;13680;49.936;11.344;2022-11-20T05:42:31;37.78;;;18.30;;
25854;SDS011;13680;49.936;11.344;2022-11-20T05:44:56;39.03;;;18.77;;
25854;SDS011;13680;49.936;11.344;2022-11-20T05:47:23;38.88;;;18.42;;
25854;SDS011;13680;49.936;11.344;2022-11-20T05:49:48;39.83;;;19.73;;
25854;SDS011;13680;49.936;11.344;2022-11-20T05:52:14;39.03;;;18.40;;
25854;SDS011;13680;49.936;11.344;2022-11-20T05:54:39;37.47;;;18.52;;
25854;SDS011;13680;49.936;11.344;2022-11-20T05:57:04;41.13;;;19.70;;
25854;SDS011;13680;49.936;11.344;2022-11-20T05:59:30;40.72;;;18.02;;
25854;SDS011;13680;49.936;11.344;2022-11-20T06:01:55;39.40;;;18.20;;
25854;SDS011;13680;49.936;11.344;2022-11-20T06:04:20;36.50;;;17.95;;
25854;SDS011;13680;49.936;11.344;2022-11-20T06:06:45;41.03;;;18.80;;
25854;SDS011;13680;49.936;11.344;2022-11-20T06:09:11;40.35;;;19.30;;
25854;SDS011;13680;49.936;11.344;2022-11-20T06:11:37;37.78;;;18.27;;
25854;SDS011;13680;49.936;11.344;2022-11-20T06:14:03;40.58;;;18.15;;
25854;SDS011;13680;49.936;11.344;2022-11-20T06:16:29;40.67;;;18.90;;
25854;SDS011;13680;49.936;11.344;2022-11-20T06:18:54;38.58;;;18.13;;
25854;SDS011;13680;49.936;11.344;2022-11-20T06:21:21;37.60;;;17.88;;
25854;SDS011;13680;49.936;11.344;2022-11-20T06:23:47;42.72;;;19.17;;
25854;SDS011;13680;49.936;11.344;2022-11-20T06:26:15;39.08;;;18.75;;
25854;SDS011;13680;49.936;11.344;2022-11-20T06:28:43;36.08;;;17.73;;
25854;SDS011;13680;49.936;11.344;2022-11-20T06:31:10;38.05;;;19.00;;
25854;SDS011;13680;49.936;11.344;2022-11-20T06:33:37;37.70;;;18.52;;
25854;SDS011;13680;49.936;11.344;2022-11-20T06:36:03;39.97;;;19.15;;
25854;SDS011;13680;49.936;11.344;2022-11-20T06:38:29;40.85;;;18.92;;
25854;SDS011;13680;49.936;11.344;2022-11-20T06:40:55;35.63;;;16.80;;
25854;SDS011;13680;49.936;11.344;2022-11-20T06:43:21;36.88;;;19.08;;
25854;SDS011;13680;49.936;11.344;2022-11-20T06:45:51;43.30;;;18.90;;
25854;SDS011;13680;49.936;11.344;2022-11-20T06:48:20;34.85;;;17.45;;
25854;SDS011;13680;49.936;11.344;2022-11-20T06:50:45;36.80;;;18.92;;
25854;SDS011;13680;49.936;11.344;2022-11-20T06:53:11;36.85;;;17.90;;
25854;SDS011;13680;49.936;11.344;2022-11-20T06:55:41;41.10;;;19.42;;
25854;SDS011;13680;49.936;11.344;2022-11-20T06:58:07;40.38;;;18.48;;
25854;SDS011;13680;49.936;11.344;2022-11-20T07:00:33;36.83;;;18.77;;
25854;SDS011;13680;49.936;11.344;2022-11-20T07:02:58;36.90;;;18.35;;
25854;SDS011;13680;49.936;11.344;2022-11-20T07:05:28;37.95;;;18.23;;
25854;SDS011;13680;49.936;11.344;2022-11-20T07:07:55;39.13;;;18.38;;
25854;SDS011;13680;49.936;11.344;2022-11-20T07:10:21;35.92;;;17.70;;
25854;SDS011;13680;49.936;11.344;2022-11-20T07:12:49;41.15;;;19.10;;
25854;SDS011;13680;49.936;11.344;2022-11-20T07:15:16;40.50;;;20.05;;
25854;SDS011;13680;49.936;11.344;2022-11-20T07:17:42;41.65;;;19.05;;
25854;SDS011;13680;49.936;11.344;2022-11-20T07:20:07;36.38;;;18.85;;
25854;SDS011;13680;49.936;11.344;2022-11-20T07:22:33;37.92;;;19.17;;
25854;SDS011;13680;49.936;11.344;2022-11-20T07:24:58;45.30;;;20.42;;
25854;SDS011;13680;49.936;11.344;2022-11-20T07:27:23;41.85;;;19.17;;
25854;SDS011;13680;49.936;11.344;2022-11-20T07:29:49;43.67;;;20.67;;
25854;SDS011;13680;49.936;11.344;2022-11-20T07:32:14;49.28;;;23.17;;
25854;SDS011;13680;49.936;11.344;2022-11-20T07:34:39;41.60;;;19.65;;
25854;SDS011;13680;49.936;11.344;2022-11-20T07:37:05;41.00;;;19.90;;
25854;SDS011;13680;49.936;11.344;2022-11-20T07:39:30;41.67;;;18.80;;
25854;SDS011;13680;49.936;11.344;2022-11-20T07:41:55;39.40;;;18.92;;
25854;SDS011;13680;49.936;11.344;2022-11-20T07:44:20;40.35;;;20.35;;
25854;SDS011;13680;49.936;11.344;2022-11-20T07:46:46;49.35;;;20.98;;
25854;SDS011;13680;49.936;11.344;2022-11-20T07:49:11;41.97;;;20.48;;
25854;SDS011;13680;49.936;11.344;2022-11-20T07:51:36;45.17;;;21.00;;
25854;SDS011;13680;49.936;11.344;2022-11-20T07:54:01;41.38;;;20.10;;
25854;SDS011;13680;49.936;11.344;2022-11-20T07:56:27;39.67;;;19.13;;
25854;SDS011;13680;49.936;11.344;2022-11-20T07:58:52;41.72;;;20.38;;
25854;SDS011;13680;49.936;11.344;2022-11-20T08:01:17;46.58;;;24.45;;
25854;SDS011;13680;49.936;11.344;2022-11-20T08:03:43;41.95;;;20.52;;
25854;SDS011;13680;49.936;11.344;2022-11-20T08:06:08;37.25;;;19.20;;
25854;SDS011;13680;49.936;11.344;2022-11-20T08:08:34;35.88;;;18.90;;
25854;SDS011;13680;49.936;11.344;2022-11-20T08:10:59;39.47;;;18.40;;
25854;SDS011;13680;49.936;11.344;2022-11-20T08:13:43;39.17;;;19.02;;
25854;SDS011;13680;49.936;11.344;2022-11-20T08:16:27;37.03;;;18.48;;
25854;SDS011;13680;49.936;11.344;2022-11-20T08:18:53;37.78;;;18.52;;
25854;SDS011;13680;49.936;11.344;2022-11-20T08:21:18;35.40;;;18.48;;
25854;SDS011;13680;49.936;11.344;2022-11-20T08:23:44;36.33;;;18.50;;
25854;SDS011;13680;49.936;11.344;2022-11-20T08:26:09;38.78;;;19.55;;
25854;SDS011;13680;49.936;11.344;2022-11-20T08:28:34;36.67;;;18.58;;
25854;SDS011;13680;49.936;11.344;2022-11-20T08:31:00;39.10;;;18.95;;
25854;SDS011;13680;49.936;11.344;2022-11-20T08:33:30;39.58;;;19.45;;
25854;SDS011;13680;49.936;11.344;2022-11-20T08:36:03;38.42;;;19.88;;
25854;SDS011;13680;49.936;11.344;2022-11-20T08:38:30;52.70;;;24.90;;
25854;SDS011;13680;49.936;11.344;2022-11-20T08:40:56;45.22;;;23.08;;
25854;SDS011;13680;49.936;11.344;2022-11-20T08:43:44;40.20;;;21.05;;
25854;SDS011;13680;49.936;11.344;2022-11-20T08:46:09;36.60;;;18.70;;
25854;SDS011;13680;49.936;11.344;2022-11-20T08:48:35;38.50;;;19.08;;
25854;SDS011;13680;49.936;11.344;2022-11-20T08:51:00;36.60;;;18.13;;
25854;SDS011;13680;49.936;11.344;2022-11-20T08:53:26;37.90;;;19.27;;
25854;SDS011;13680;49.936;11.344;2022-11-20T08:55:52;43.13;;;22.63;;
25854;SDS011;13680;49.936;11.344;2022-11-20T08:58:20;43.35;;;21.50;;
25854;SDS011;13680;49.936;11.344;2022-11-20T09:00:48;38.10;;;19.60;;
25854;SDS011;13680;49.936;11.344;2022-11-20T09:03:13;38.03;;;19.75;;
25854;SDS011;13680;49.936;11.344;2022-11-20T09:05:39;59.25;;;29.92;;
25854;SDS011;13680;49.936;11.344;2022-11-20T09:08:04;42.53;;;21.02;;
25854;SDS011;13680;49.936;11.344;2022-11-20T09:10:29;39.28;;;19.85;;
25854;SDS011;13680;49.936;11.344;2022-11-20T09:12:55;54.65;;;26.77;;
25854;SDS011;13680;49.936;11.344;2022-11-20T09:15:21;88.85;;;45.83;;
25854;SDS011;13680;49.936;11.344;2022-11-20T09:17:56;56.10;;;27.45;;
25854;SDS011;13680;49.936;11.344;2022-11-20T09:20:23;50.03;;;26.38;;
25854;SDS011;13680;49.936;11.344;2022-11-20T09:22:48;39.60;;;19.70;;
25854;SDS011;13680;49.936;11.344;2022-11-20T09:25:14;37.53;;;19.00;;
25854;SDS011;13680;49.936;11.344;2022-11-20T09:27:39;37.60;;;18.42;;
25854;SDS011;13680;49.936;11.344;2022-11-20T09:30:06;37.53;;;19.60;;
25854;SDS011;13680;49.936;11.344;2022-11-20T09:32:32;38.28;;;18.63;;
25854;SDS011;13680;49.936;11.344;2022-11-20T09:34:57;41.85;;;21.00;;
25854;SDS011;13680;49.936;11.344;2022-11-20T09:37:23;56.80;;;27.77;;
25854;SDS011;13680;49.936;11.344;2022-11-20T09:39:48;56.35;;;29.42;;
25854;SDS011;13680;49.936;11.344;2022-11-20T09:50:39;38.60;;;19.10;;
25854;SDS011;13680;49.936;11.344;2022-11-20T09:53:27;42.53;;;20.02;;
25854;SDS011;13680;49.936;11.344;2022-11-20T09:56:06;43.00;;;19.52;;
25854;SDS011;13680;49.936;11.344;2022-11-20T09:58:38;42.22;;;19.85;;
25854;SDS011;13680;49.936;11.344;2022-11-20T10:01:11;46.75;;;20.95;;
25854;SDS011;13680;49.936;11.344;2022-11-20T10:03:45;50.40;;;22.88;;
25854;SDS011;13680;49.936;11.344;2022-11-20T10:06:15;52.17;;;25.73;;
25854;SDS011;13680;49.936;11.344;2022-11-20T10:11:50;71.95;;;33.45;;
25854;SDS011;13680;49.936;11.344;2022-11-20T10:14:26;52.78;;;23.33;;
25854;SDS011;13680;49.936;11.344;2022-11-20T10:22:48;45.08;;;20.73;;
25854;SDS011;13680;49.936;11.344;2022-11-20T10:25:24;43.28;;;19.77;;
25854;SDS011;13680;49.936;11.344;2022-11-20T10:28:15;43.30;;;20.77;;
25854;SDS011;13680;49.936;11.344;2022-11-20T10:33:57;44.72;;;19.52;;
25854;SDS011;13680;49.936;11.344;2022-11-20T10:36:34;43.47;;;19.23;;
25854;SDS011;13680;49.936;11.344;2022-11-20T10:39:13;31.60;;;16.75;;
25854;SDS011;13680;49.936;11.344;2022-11-20T10:41:48;39.58;;;18.85;;
25854;SDS011;13680;49.936;11.344;2022-11-20T10:44:17;37.22;;;18.52;;
25854;SDS011;13680;49.936;11.344;2022-11-20T10:47:13;38.50;;;19.83;;
25854;SDS011;13680;49.936;11.344;2022-11-20T10:49:40;41.67;;;20.50;;
25854;SDS011;13680;49.936;11.344;2022-11-20T11:00:46;33.58;;;17.23;;
25854;SDS011;13680;49.936;11.344;2022-11-20T11:03:20;39.90;;;20.27;;
25854;SDS011;13680;49.936;11.344;2022-11-20T11:08:29;35.63;;;18.02;;
25854;SDS011;13680;49.936;11.344;2022-11-20T11:11:00;37.22;;;18.50;;
25854;SDS011;13680;49.936;11.344;2022-11-20T11:13:39;36.33;;;18.40;;
25854;SDS011;13680;49.936;11.344;2022-11-20T11:16:04;35.22;;;17.60;;
25854;SDS011;13680;49.936;11.344;2022-11-20T11:18:33;34.85;;;18.20;;
25854;SDS011;13680;49.936;11.344;2022-11-20T11:21:00;29.65;;;15.38;;
25854;SDS011;13680;49.936;11.344;2022-11-20T11:26:01;27.92;;;14.05;;
25854;SDS011;13680;49.936;11.344;2022-11-20T11:28:28;27.50;;;14.45;;
25854;SDS011;13680;49.936;11.344;2022-11-20T11:30:54;28.10;;;14.02;;
25854;SDS011;13680;49.936;11.344;2022-11-20T11:33:21;24.20;;;13.20;;
25854;SDS011;13680;49.936;11.344;2022-11-20T11:35:49;27.83;;;14.15;;
25854;SDS011;13680;49.936;11.344;2022-11-20T11:38:22;24.85;;;13.75;;
25854;SDS011;13680;49.936;11.344;2022-11-20T11:40:59;26.08;;;14.05;;
25854;SDS011;13680;49.936;11.344;2022-11-20T11:43:26;29.55;;;15.27;;
25854;SDS011;13680;49.936;11.344;2022-11-20T11:46:33;28.17;;;15.02;;
25854;SDS011;13680;49.936;11.344;2022-11-20T11:51:39;25.30;;;13.48;;
25854;SDS011;13680;49.936;11.344;2022-11-20T11:54:20;26.23;;;13.10;;
25854;SDS011;13680;49.936;11.344;2022-11-20T11:56:50;25.10;;;14.30;;
25854;SDS011;13680;49.936;11.344;2022-11-20T11:59:28;21.27;;;12.52;;
25854;SDS011;13680;49.936;11.344;2022-11-20T12:02:27;44.75;;;20.95;;
25854;SDS011;13680;49.936;11.344;2022-11-20T12:05:00;36.80;;;17.95;;
25854;SDS011;13680;49.936;11.344;2022-11-20T12:07:38;22.55;;;12.60;;
25854;SDS011;13680;49.936;11.344;2022-11-20T12:13:55;25.15;;;12.40;;
25854;SDS011;13680;49.936;11.344;2022-11-20T12:15:55;24.25;;;12.60;;
25854;SDS011;13680;49.936;11.344;2022-11-20T12:18:21;22.30;;;12.60;;
25854;SDS011;13680;49.936;11.344;2022-11-20T12:21:00;23.63;;;13.40;;
25854;SDS011;13680;49.936;11.344;2022-11-20T12:29:22;20.48;;;11.38;;
25854;SDS011;13680;49.936;11.344;2022-11-20T12:40:57;21.30;;;11.32;;
25854;SDS011;13680;49.936;11.344;2022-11-20T12:43:42;21.77;;;12.13;;
25854;SDS011;13680;49.936;11.344;2022-11-20T12:46:47;20.33;;;11.40;;
25854;SDS011;13680;49.936;11.344;2022-11-20T12:52:03;23.00;;;11.85;;
25854;SDS011;13680;49.936;11.344;2022-11-20T12:57:31;19.92;;;10.85;;
25854;SDS011;13680;49.936;11.344;2022-11-20T13:07:41;17.10;;;9.40;;
25854;SDS011;13680;49.936;11.344;2022-11-20T13:10:54;13.38;;;8.18;;
25854;SDS011;13680;49.936;11.344;2022-11-20T13:13:51;12.48;;;7.15;;
25854;SDS011;13680;49.936;11.344;2022-11-20T13:16:15;11.45;;;6.65;;
25854;SDS011;13680;49.936;11.344;2022-11-20T13:18:47;13.38;;;7.32;;
25854;SDS011;13680;49.936;11.344;2022-11-20T13:21:13;11.32;;;6.63;;
25854;SDS011;13680;49.936;11.344;2022-11-20T13:23:46;11.50;;;6.60;;
25854;SDS011;13680;49.936;11.344;2022-11-20T13:26:16;12.80;;;7.72;;
25854;SDS011;13680;49.936;11.344;2022-11-20T13:28:59;13.35;;;7.43;;
25854;SDS011;13680;49.936;11.344;2022-11-20T13:31:29;14.55;;;7.90;;
25854;SDS011;13680;49.936;11.344;2022-11-20T13:34:00;13.68;;;7.95;;
25854;SDS011;13680;49.936;11.344;2022-11-20T13:36:28;13.93;;;8.13;;
25854;SDS011;13680;49.936;11.344;2022-11-20T13:38:55;13.30;;;7.50;;
25854;SDS011;13680;49.936;11.344;2022-11-20T13:41:25;17.15;;;9.43;;
25854;SDS011;13680;49.936;11.344;2022-11-20T13:44:15;19.92;;;10.63;;
25854;SDS011;13680;49.936;11.344;2022-11-20T13:46:51;21.73;;;11.27;;
25854;SDS011;13680;49.936;11.344;2022-11-20T13:49:33;19.13;;;10.20;;
25854;SDS011;13680;49.936;11.344;2022-11-20T13:52:07;17.08;;;9.25;;
25854;SDS011;13680;49.936;11.344;2022-11-20T14:00:07;15.45;;;10.43;;
25854;SDS011;13680;49.936;11.344;2022-11-20T14:02:37;29.33;;;16.52;;
25854;SDS011;13680;49.936;11.344;2022-11-20T14:05:03;22.60;;;12.40;;
25854;SDS011;13680;49.936;11.344;2022-11-20T14:07:40;20.10;;;13.35;;
25854;SDS011;13680;49.936;11.344;2022-11-20T14:10:19;17.58;;;10.48;;
25854;SDS011;13680;49.936;11.344;2022-11-20T14:12:46;15.10;;;8.10;;
25854;SDS011;13680;49.936;11.344;2022-11-20T14:15:23;14.50;;;8.93;;
25854;SDS011;13680;49.936;11.344;2022-11-20T14:17:50;15.52;;;9.50;;
25854;SDS011;13680;49.936;11.344;2022-11-20T14:20:15;14.75;;;8.65;;
25854;SDS011;13680;49.936;11.344;2022-11-20T14:22:50;17.80;;;9.70;;
25854;SDS011;13680;49.936;11.344;2022-11-20T14:27:42;20.42;;;11.95;;
25854;SDS011;13680;49.936;11.344;2022-11-20T14:32:43;17.65;;;10.48;;
25854;SDS011;13680;49.936;11.344;2022-11-20T14:35:13;23.35;;;12.07;;
25854;SDS011;13680;49.936;11.344;2022-11-20T14:37:44;22.75;;;12.52;;
25854;SDS011;13680;49.936;11.344;2022-11-20T14:40:32;26.27;;;12.68;;
25854;SDS011;13680;49.936;11.344;2022-11-20T14:43:15;24.92;;;13.38;;
25854;SDS011;13680;49.936;11.344;2022-11-20T14:45:44;26.65;;;13.60;;
25854;SDS011;13680;49.936;11.344;2022-11-20T14:48:13;20.50;;;11.32;;
25854;SDS011;13680;49.936;11.344;2022-11-20T14:50:43;21.60;;;12.40;;
25854;SDS011;13680;49.936;11.344;2022-11-20T14:53:09;25.05;;;11.95;;
25854;SDS011;13680;49.936;11.344;2022-11-20T14:55:35;24.52;;;13.40;;
25854;SDS011;13680;49.936;11.344;2022-11-20T14:58:03;23.40;;;12.57;;
25854;SDS011;13680;49.936;11.344;2022-11-20T15:00:31;24.15;;;12.70;;
25854;SDS011;13680;49.936;11.344;2022-11-20T15:02:58;44.97;;;28.17;;
25854;SDS011;13680;49.936;11.344;2022-11-20T15:05:45;26.20;;;14.57;;
25854;SDS011;13680;49.936;11.344;2022-11-20T15:08:11;26.40;;;14.50;;
25854;SDS011;13680;49.936;11.344;2022-11-20T15:10:38;27.17;;;14.50;;
25854;SDS011;13680;49.936;11.344;2022-11-20T15:13:31;27.02;;;14.50;;
25854;SDS011;13680;49.936;11.344;2022-11-20T15:16:00;25.95;;;14.25;;
25854;SDS011;13680;49.936;11.344;2022-11-20T15:18:28;28.30;;;14.35;;
25854;SDS011;13680;49.936;11.344;2022-11-20T15:21:03;27.80;;;14.57;;
25854;SDS011;13680;49.936;11.344;2022-11-20T15:23:34;24.27;;;13.45;;
25854;SDS011;13680;49.936;11.344;2022-11-20T15:26:00;26.23;;;14.98;;
25854;SDS011;13680;49.936;11.344;2022-11-20T15:28:42;26.58;;;14.73;;
25854;SDS011;13680;49.936;11.344;2022-11-20T15:31:12;29.25;;;17.45;;
25854;SDS011;13680;49.936;11.344;2022-11-20T15:33:39;27.55;;;16.02;;
25854;SDS011;13680;49.936;11.344;2022-11-20T15:36:05;26.75;;;14.82;;
25854;SDS011;13680;49.936;11.344;2022-11-20T15:38:30;26.98;;;13.98;;
25854;SDS011;13680;49.936;11.344;2022-11-20T15:40:55;25.80;;;13.93;;
25854;SDS011;13680;49.936;11.344;2022-11-20T15:43:21;23.90;;;14.32;;
25854;SDS011;13680;49.936;11.344;2022-11-20T15:48:21;27.75;;;14.32;;
25854;SDS011;13680;49.936;11.344;2022-11-20T15:50:56;29.08;;;15.45;;